createdAt,value
2022-10-16T00:00:53.554Z,8.80
2022-10-16T00:03:21.971Z,9.10
2022-10-16T00:05:53.280Z,8.70
2022-10-16T00:08:22.061Z,10.93
2022-10-16T00:10:49.803Z,10.77
2022-10-16T00:13:17.978Z,6.50
2022-10-16T00:15:45.817Z,10.82
2022-10-16T00:18:15.348Z,9.52
2022-10-16T00:20:43.366Z,8.80
2022-10-16T00:23:12.502Z,10.48
2022-10-16T00:25:40.236Z,7.35
2022-10-16T00:28:08.030Z,6.68
2022-10-16T00:30:35.854Z,9.80
2022-10-16T00:33:03.650Z,9.20
2022-10-16T00:35:32.819Z,8.18
2022-10-16T00:38:00.585Z,8.35
2022-10-16T00:40:30.381Z,8.68
2022-10-16T00:42:58.150Z,16.60
2022-10-16T00:45:26.106Z,9.73
2022-10-16T00:47:55.921Z,10.10
2022-10-16T00:50:28.913Z,11.30
2022-10-16T00:52:57.802Z,8.70
2022-10-16T00:55:26.290Z,13.80
2022-10-16T00:57:56.302Z,8.18
2022-10-16T01:00:28.188Z,11.00
2022-10-16T01:02:56.887Z,9.73
2022-10-16T01:05:25.685Z,11.65
2022-10-16T01:08:00.856Z,11.02
2022-10-16T01:10:35.842Z,11.15
2022-10-16T01:13:11.448Z,7.72
2022-10-16T01:15:44.396Z,8.23
2022-10-16T01:18:18.891Z,8.70
2022-10-16T01:20:52.345Z,8.68
2022-10-16T01:23:40.379Z,8.35
2022-10-16T01:26:22.344Z,8.82
2022-10-16T01:28:56.610Z,8.65
2022-10-16T01:31:27.836Z,8.80
2022-10-16T01:34:02.605Z,8.82
2022-10-16T01:36:37.117Z,7.65
2022-10-16T01:39:05.380Z,9.55
2022-10-16T01:41:37.966Z,8.15
2022-10-16T01:44:09.636Z,9.93
2022-10-16T01:46:39.952Z,8.00
2022-10-16T01:49:08.353Z,8.30
2022-10-16T01:51:39.062Z,8.18
2022-10-16T01:54:10.075Z,9.02
2022-10-16T01:56:38.810Z,10.25
2022-10-16T01:59:11.821Z,11.77
2022-10-16T02:01:42.413Z,9.63
2022-10-16T02:04:17.165Z,8.75
2022-10-16T02:06:45.073Z,13.77
2022-10-16T02:09:12.953Z,9.30
2022-10-16T02:11:40.834Z,10.15
2022-10-16T02:14:09.977Z,11.88
2022-10-16T02:16:40.078Z,13.98
2022-10-16T02:19:08.677Z,10.02
2022-10-16T02:21:43.048Z,10.20
2022-10-16T02:24:17.973Z,9.65
2022-10-16T02:26:59.415Z,16.17
2022-10-16T02:29:29.157Z,10.40
2022-10-16T02:32:00.756Z,8.55
2022-10-16T02:34:30.492Z,9.80
2022-10-16T02:37:00.159Z,11.38
2022-10-16T02:39:29.163Z,8.65
2022-10-16T02:41:56.946Z,10.23
2022-10-16T02:44:24.737Z,8.65
2022-10-16T02:46:53.813Z,11.60
2022-10-16T02:49:21.781Z,10.55
2022-10-16T02:51:49.537Z,9.70
2022-10-16T02:54:17.317Z,10.13
2022-10-16T02:56:45.090Z,11.60
2022-10-16T02:59:12.912Z,8.75
2022-10-16T03:01:40.755Z,10.45
2022-10-16T03:04:09.920Z,9.82
2022-10-16T03:06:38.399Z,7.45
2022-10-16T03:09:06.861Z,9.48
2022-10-16T03:11:34.668Z,9.15
2022-10-16T03:14:02.459Z,10.20
2022-10-16T03:16:30.226Z,8.25
2022-10-16T03:18:58.000Z,6.88
2022-10-16T03:21:27.147Z,8.63
2022-10-16T03:23:54.898Z,9.80
2022-10-16T03:26:22.727Z,5.90
2022-10-16T03:28:50.618Z,9.65
2022-10-16T03:31:18.479Z,9.27
2022-10-16T03:33:46.226Z,6.38
2022-10-16T03:36:14.031Z,12.85
2022-10-16T03:38:43.135Z,7.70
2022-10-16T03:41:10.925Z,10.05
2022-10-16T03:43:38.702Z,10.75
2022-10-16T03:46:06.858Z,7.97
2022-10-16T03:48:34.944Z,7.03
2022-10-16T03:51:02.729Z,7.43
2022-10-16T03:53:30.481Z,5.70
2022-10-16T03:55:59.692Z,7.32
2022-10-16T03:58:27.440Z,8.15
2022-10-16T04:00:55.288Z,9.27
2022-10-16T04:03:23.917Z,8.43
2022-10-16T04:05:52.206Z,8.80
2022-10-16T04:08:20.168Z,6.25
2022-10-16T04:10:48.301Z,5.30
2022-10-16T04:13:17.729Z,7.88
2022-10-16T04:15:47.162Z,7.97
2022-10-16T04:18:14.956Z,9.68
2022-10-16T04:20:43.018Z,5.93
2022-10-16T04:23:10.757Z,12.40
2022-10-16T04:25:38.622Z,9.07
2022-10-16T04:28:06.458Z,5.95
2022-10-16T04:30:35.594Z,5.53
2022-10-16T04:33:03.395Z,6.60
2022-10-16T04:35:31.212Z,5.88
2022-10-16T04:37:59.468Z,5.90
2022-10-16T04:40:27.308Z,8.65
2022-10-16T04:42:55.118Z,5.15
2022-10-16T04:45:22.946Z,5.07
2022-10-16T04:47:52.092Z,11.73
2022-10-16T04:50:19.940Z,6.15
2022-10-16T04:53:03.022Z,5.15
2022-10-16T04:55:30.847Z,6.55
2022-10-16T04:57:58.598Z,8.02
2022-10-16T05:00:26.443Z,7.13
2022-10-16T05:02:55.709Z,6.80
2022-10-16T05:05:24.022Z,6.45
2022-10-16T05:07:51.899Z,5.38
2022-10-16T05:10:19.790Z,7.68
2022-10-16T05:12:48.182Z,5.97
2022-10-16T05:15:16.114Z,5.75
2022-10-16T05:17:44.809Z,5.70
2022-10-16T05:20:14.524Z,6.82
2022-10-16T05:22:42.355Z,6.03
2022-10-16T05:25:10.353Z,5.15
2022-10-16T05:27:38.243Z,4.82
2022-10-16T05:30:08.629Z,5.70
2022-10-16T05:32:39.360Z,4.45
2022-10-16T05:35:10.229Z,8.75
2022-10-16T05:37:41.782Z,5.03
2022-10-16T05:40:11.189Z,5.55
2022-10-16T05:42:39.205Z,5.40
2022-10-16T05:45:08.369Z,6.82
2022-10-16T05:47:36.182Z,4.40
2022-10-16T05:50:05.110Z,6.72
2022-10-16T05:52:32.951Z,5.97
2022-10-16T05:55:02.078Z,5.38
2022-10-16T05:57:30.025Z,4.28
2022-10-16T05:59:58.059Z,5.80
2022-10-16T06:02:25.890Z,3.67
2022-10-16T06:04:55.054Z,7.28
2022-10-16T06:07:24.565Z,8.20
2022-10-16T06:09:52.860Z,5.03
2022-10-16T06:12:22.091Z,7.43
2022-10-16T06:14:50.407Z,5.60
2022-10-16T06:17:18.331Z,5.85
2022-10-16T06:19:46.178Z,5.90
2022-10-16T06:22:14.359Z,3.90
2022-10-16T06:24:42.106Z,7.25
2022-10-16T06:27:09.943Z,6.90
2022-10-16T06:29:39.027Z,6.90
2022-10-16T06:32:06.913Z,6.35
2022-10-16T06:34:35.291Z,7.38
2022-10-16T06:37:03.202Z,4.57
2022-10-16T06:39:30.993Z,6.00
2022-10-16T06:44:38.579Z,5.18
2022-10-16T06:47:06.353Z,4.72
2022-10-16T06:49:35.276Z,4.68
2022-10-16T06:52:03.431Z,4.32
2022-10-16T06:54:36.521Z,5.72
2022-10-16T06:57:09.827Z,5.93
2022-10-16T06:59:39.007Z,3.65
2022-10-16T07:02:07.964Z,5.85
2022-10-16T07:04:37.296Z,5.22
2022-10-16T07:07:07.010Z,3.17
2022-10-16T07:09:37.250Z,6.35
2022-10-16T07:12:05.583Z,6.53
2022-10-16T07:14:33.352Z,6.22
2022-10-16T07:17:02.570Z,4.07
2022-10-16T07:19:33.386Z,5.90
2022-10-16T07:22:02.253Z,6.57
2022-10-16T07:24:30.008Z,4.40
2022-10-16T07:26:57.790Z,3.10
2022-10-16T07:29:25.580Z,3.90
2022-10-16T07:31:53.371Z,5.90
2022-10-16T07:34:23.450Z,5.38
2022-10-16T07:36:51.869Z,4.80
2022-10-16T07:39:19.830Z,3.67
2022-10-16T07:41:47.668Z,3.97
2022-10-16T07:44:15.466Z,4.07
2022-10-16T07:46:43.379Z,5.75
2022-10-16T07:49:11.341Z,3.60
2022-10-16T07:51:40.533Z,4.18
2022-10-16T07:54:09.939Z,4.30
2022-10-16T07:56:39.990Z,5.80
2022-10-16T07:59:10.807Z,4.40
2022-10-16T08:01:38.875Z,6.90
2022-10-16T08:04:07.708Z,4.20
2022-10-16T08:06:38.633Z,3.90
2022-10-16T08:09:08.147Z,3.65
2022-10-16T08:11:36.154Z,5.28
2022-10-16T08:14:03.962Z,5.63
2022-10-16T08:16:31.767Z,2.83
2022-10-16T08:18:59.576Z,4.28
2022-10-16T08:21:27.444Z,4.00
2022-10-16T08:23:57.995Z,4.45
2022-10-16T08:26:28.199Z,3.22
2022-10-16T08:28:56.591Z,5.53
2022-10-16T08:31:25.166Z,5.45
2022-10-16T08:33:53.463Z,5.60
2022-10-16T08:36:21.408Z,4.68
2022-10-16T08:38:50.964Z,5.70
2022-10-16T08:41:31.242Z,7.30
2022-10-16T08:44:29.944Z,3.72
2022-10-16T08:47:11.219Z,3.30
2022-10-16T08:49:39.793Z,4.03
2022-10-16T08:52:14.277Z,9.27
2022-10-16T08:54:46.963Z,4.78
2022-10-16T08:57:21.530Z,4.93
2022-10-16T08:59:51.956Z,4.60
2022-10-16T09:02:29.316Z,8.05
2022-10-16T09:05:19.257Z,4.72
2022-10-16T09:07:53.679Z,3.50
2022-10-16T09:10:31.666Z,5.97
2022-10-16T09:13:12.041Z,3.97
2022-10-16T09:15:48.786Z,6.45
2022-10-16T09:18:27.467Z,3.28
2022-10-16T09:21:03.222Z,2.65
2022-10-16T09:23:33.001Z,3.55
2022-10-16T09:26:01.290Z,2.72
2022-10-16T09:28:30.508Z,3.58
2022-10-16T09:30:58.612Z,5.40
2022-10-16T09:33:31.314Z,4.40
2022-10-16T09:36:00.107Z,3.40
2022-10-16T09:38:30.102Z,4.65
2022-10-16T09:41:03.097Z,2.08
2022-10-16T09:43:41.224Z,4.20
2022-10-16T09:46:11.331Z,3.97
2022-10-16T09:48:44.984Z,6.35
2022-10-16T09:51:21.805Z,3.95
2022-10-16T09:53:50.175Z,5.13
2022-10-16T09:56:24.734Z,4.15
2022-10-16T09:58:55.178Z,4.63
2022-10-16T10:01:25.018Z,3.28
2022-10-16T10:03:59.541Z,7.15
2022-10-16T10:06:31.891Z,4.50
2022-10-16T10:09:03.722Z,3.67
2022-10-16T10:11:56.086Z,3.67
2022-10-16T10:14:28.943Z,7.40
2022-10-16T10:17:14.387Z,5.03
2022-10-16T10:19:44.069Z,3.42
2022-10-16T10:22:25.919Z,4.03
2022-10-16T10:24:58.293Z,6.47
2022-10-16T10:27:34.547Z,6.25
2022-10-16T10:30:10.901Z,10.38
2022-10-16T10:32:44.621Z,6.53
2022-10-16T10:35:20.857Z,4.70
2022-10-16T10:38:04.226Z,4.07
2022-10-16T10:40:45.441Z,8.15
2022-10-16T10:43:24.027Z,4.20
2022-10-16T10:45:56.825Z,6.28
2022-10-16T10:48:49.338Z,3.13
2022-10-16T10:51:24.938Z,4.32
2022-10-16T10:54:01.206Z,6.88
2022-10-16T10:56:44.153Z,4.60
2022-10-16T10:59:42.445Z,4.70
2022-10-16T11:02:20.003Z,2.95
2022-10-16T11:05:10.133Z,2.92
2022-10-16T11:07:43.290Z,4.88
2022-10-16T11:10:17.180Z,4.70
2022-10-16T11:12:49.964Z,5.05
2022-10-16T11:15:21.612Z,5.13
2022-10-16T11:17:56.849Z,6.60
2022-10-16T11:20:27.807Z,7.68
2022-10-16T11:23:00.177Z,3.30
2022-10-16T11:25:30.052Z,7.40
2022-10-16T11:28:10.195Z,4.63
2022-10-16T11:30:45.514Z,6.15
2022-10-16T11:33:28.905Z,5.28
2022-10-16T11:36:02.673Z,4.10
2022-10-16T11:38:36.916Z,9.10
2022-10-16T11:41:11.942Z,2.00
2022-10-16T11:43:44.910Z,4.18
2022-10-16T11:46:17.054Z,7.13
2022-10-16T11:48:52.655Z,6.05
2022-10-16T11:51:31.715Z,4.82
2022-10-16T11:54:06.570Z,4.90
2022-10-16T11:56:38.315Z,6.78
2022-10-16T11:59:10.324Z,5.57
2022-10-16T12:01:44.155Z,8.70
2022-10-16T12:04:24.472Z,6.20
2022-10-16T12:06:57.398Z,3.92
2022-10-16T12:09:30.118Z,4.25
2022-10-16T12:11:58.640Z,7.65
2022-10-16T12:15:14.989Z,8.25
2022-10-16T12:17:35.523Z,8.27
2022-10-16T12:20:33.117Z,3.83
2022-10-16T12:23:03.402Z,5.70
2022-10-16T12:25:34.299Z,8.23
2022-10-16T12:28:07.584Z,4.30
2022-10-16T12:30:38.190Z,6.70
2022-10-16T12:33:08.201Z,5.25
2022-10-16T12:35:46.316Z,4.70
2022-10-16T12:38:20.337Z,5.90
2022-10-16T12:40:56.928Z,6.93
2022-10-16T12:43:40.459Z,4.95
2022-10-16T12:46:25.510Z,6.10
2022-10-16T12:49:06.353Z,3.70
2022-10-16T12:51:39.103Z,7.43
2022-10-16T12:54:15.421Z,6.35
2022-10-16T12:56:50.527Z,5.80
2022-10-16T12:59:29.524Z,7.93
2022-10-16T13:02:18.155Z,4.10
2022-10-16T13:05:00.885Z,4.55
2022-10-16T13:07:53.928Z,10.73
2022-10-16T13:10:28.626Z,5.43
2022-10-16T13:13:18.976Z,5.43
2022-10-16T13:16:08.693Z,10.98
2022-10-16T13:18:46.986Z,4.78
2022-10-16T13:21:27.256Z,4.10
2022-10-16T13:24:03.990Z,14.30
2022-10-16T13:26:40.886Z,5.72
2022-10-16T13:29:08.824Z,7.97
2022-10-16T13:31:40.745Z,7.38
2022-10-16T13:34:16.392Z,7.90
2022-10-16T13:36:51.166Z,13.45
2022-10-16T13:39:25.785Z,9.02
2022-10-16T13:42:06.465Z,5.95
2022-10-16T13:44:41.687Z,6.38
2022-10-16T13:47:18.841Z,8.13
2022-10-16T13:49:47.128Z,12.77
2022-10-16T13:52:20.815Z,6.22
2022-10-16T13:54:50.109Z,5.45
2022-10-16T13:57:27.607Z,8.25
2022-10-16T13:59:56.239Z,5.07
2022-10-16T14:02:30.399Z,7.35
2022-10-16T14:04:59.391Z,7.70
2022-10-16T14:07:29.619Z,8.07
2022-10-16T14:10:03.559Z,8.88
2022-10-16T14:12:31.682Z,5.43
2022-10-16T14:15:01.130Z,11.55
2022-10-16T14:17:31.926Z,5.43
2022-10-16T14:20:04.128Z,6.88
2022-10-16T14:22:36.262Z,6.47
2022-10-16T14:25:29.348Z,6.53
2022-10-16T14:28:05.886Z,5.05
2022-10-16T14:30:35.939Z,7.03
2022-10-16T14:33:05.843Z,5.22
2022-10-16T14:35:35.675Z,7.18
2022-10-16T14:38:05.374Z,7.53
2022-10-16T14:40:36.107Z,8.27
2022-10-16T14:43:06.020Z,6.10
2022-10-16T14:45:36.347Z,8.52
2022-10-16T14:48:08.103Z,6.05
2022-10-16T14:50:35.891Z,6.45
2022-10-16T14:53:03.814Z,9.70
2022-10-16T14:55:31.613Z,5.90
2022-10-16T14:58:01.008Z,5.85
2022-10-16T15:00:29.225Z,4.72
2022-10-16T15:02:57.014Z,4.05
2022-10-16T15:05:27.268Z,4.70
2022-10-16T15:07:56.159Z,4.03
2022-10-16T15:10:25.305Z,5.90
2022-10-16T15:12:53.154Z,5.47
2022-10-16T15:15:36.435Z,7.97
2022-10-16T15:18:04.799Z,5.95
2022-10-16T15:20:36.266Z,6.40
2022-10-16T15:23:05.458Z,5.13
2022-10-16T15:25:38.484Z,5.20
2022-10-16T15:28:07.732Z,4.90
2022-10-16T15:30:37.874Z,8.68
2022-10-16T15:33:07.116Z,4.43
2022-10-16T15:35:34.920Z,7.50
2022-10-16T15:38:02.829Z,8.27
2022-10-16T15:40:30.805Z,7.05
2022-10-16T15:42:58.755Z,9.60
2022-10-16T15:45:26.558Z,3.15
2022-10-16T15:47:55.706Z,4.78
2022-10-16T15:50:23.631Z,5.68
2022-10-16T15:52:52.270Z,7.18
2022-10-16T15:55:20.381Z,4.35
2022-10-16T15:57:48.280Z,6.40
2022-10-16T16:00:18.330Z,6.10
2022-10-16T16:02:51.383Z,4.30
2022-10-16T16:05:21.373Z,6.53
2022-10-16T16:07:49.508Z,8.80
2022-10-16T16:10:18.040Z,4.00
2022-10-16T16:12:50.367Z,5.97
2022-10-16T16:15:18.229Z,2.95
2022-10-16T16:17:46.031Z,7.80
2022-10-16T16:20:14.177Z,4.07
2022-10-16T16:22:44.151Z,5.55
2022-10-16T16:25:12.091Z,4.60
2022-10-16T16:27:40.238Z,4.43
2022-10-16T16:30:09.551Z,5.55
2022-10-16T16:32:37.407Z,4.75
2022-10-16T16:35:06.052Z,5.07
2022-10-16T16:37:34.135Z,5.72
2022-10-16T16:40:03.580Z,7.47
2022-10-16T16:42:31.434Z,4.22
2022-10-16T16:44:59.246Z,5.05
2022-10-16T16:47:27.358Z,4.05
2022-10-16T16:49:55.301Z,6.07
2022-10-16T16:52:23.989Z,4.68
2022-10-16T16:54:53.215Z,8.25
2022-10-16T16:57:22.810Z,7.07
2022-10-16T16:59:52.776Z,6.32
2022-10-16T17:02:20.678Z,5.50
2022-10-16T17:04:48.893Z,7.20
2022-10-16T17:07:18.447Z,11.43
2022-10-16T17:09:47.409Z,4.20
2022-10-16T17:12:15.247Z,11.00
2022-10-16T17:14:44.391Z,11.82
2022-10-16T17:17:12.346Z,9.35
2022-10-16T17:19:40.137Z,7.25
2022-10-16T17:22:07.902Z,11.15
2022-10-16T17:24:36.195Z,12.07
2022-10-16T17:27:05.411Z,10.65
2022-10-16T17:29:33.336Z,12.25
2022-10-16T17:32:02.570Z,11.90
2022-10-16T17:34:30.484Z,12.52
2022-10-16T17:36:58.239Z,13.75
2022-10-16T17:39:26.185Z,12.40
2022-10-16T17:41:54.557Z,14.32
2022-10-16T17:44:22.892Z,10.43
2022-10-16T17:46:52.430Z,10.45
2022-10-16T17:49:22.857Z,8.68
2022-10-16T17:51:52.326Z,9.77
2022-10-16T17:54:20.589Z,12.50
2022-10-16T17:56:48.908Z,7.45
2022-10-16T17:59:17.095Z,11.32
2022-10-16T18:01:46.269Z,11.23
2022-10-16T18:04:17.101Z,9.07
2022-10-16T18:06:47.392Z,9.52
2022-10-16T18:09:18.254Z,11.38
2022-10-16T18:11:46.427Z,14.77
2022-10-16T18:14:16.061Z,7.47
2022-10-16T18:16:44.754Z,12.00
2022-10-16T18:19:13.591Z,7.07
2022-10-16T18:21:41.729Z,13.65
2022-10-16T18:24:11.843Z,11.95
2022-10-16T18:26:40.146Z,15.25
2022-10-16T18:29:09.062Z,13.05
2022-10-16T18:31:39.152Z,13.40
2022-10-16T18:34:09.960Z,13.48
2022-10-16T18:36:37.942Z,14.73
2022-10-16T18:39:09.533Z,16.55
2022-10-16T18:41:39.550Z,11.60
2022-10-16T18:44:08.313Z,10.63
2022-10-16T18:46:36.721Z,14.88
2022-10-16T18:49:05.034Z,8.75
2022-10-16T18:51:34.602Z,9.20
2022-10-16T18:54:04.705Z,11.10
2022-10-16T18:56:33.372Z,9.85
2022-10-16T18:59:04.745Z,13.68
2022-10-16T19:01:35.480Z,10.50
2022-10-16T19:04:06.641Z,14.52
2022-10-16T19:06:35.860Z,9.82
2022-10-16T19:09:04.034Z,12.95
2022-10-16T19:11:34.819Z,12.73
2022-10-16T19:14:05.921Z,6.40
2022-10-16T19:16:36.164Z,13.32
2022-10-16T19:19:06.326Z,15.73
2022-10-16T19:21:39.944Z,9.73
2022-10-16T19:24:08.912Z,11.75
2022-10-16T19:26:39.524Z,10.75
2022-10-16T19:29:11.846Z,15.27
2022-10-16T19:31:40.806Z,16.20
2022-10-16T19:34:09.695Z,17.05
2022-10-16T19:36:39.939Z,14.68
2022-10-16T19:39:11.108Z,9.82
2022-10-16T19:41:39.228Z,14.52
2022-10-16T19:44:08.660Z,11.98
2022-10-16T19:46:37.950Z,10.55
2022-10-16T19:49:08.162Z,12.43
2022-10-16T19:51:36.290Z,11.88
2022-10-16T19:54:06.533Z,13.98
2022-10-16T19:56:36.105Z,11.48
2022-10-16T19:59:05.386Z,16.45
2022-10-16T20:01:34.276Z,16.10
2022-10-16T20:04:03.690Z,10.88
2022-10-16T20:06:31.706Z,12.50
2022-10-16T20:08:59.560Z,8.85
2022-10-16T20:11:29.558Z,14.98
2022-10-16T20:13:57.670Z,14.50
2022-10-16T20:16:26.480Z,9.98
2022-10-16T20:18:54.739Z,12.30
2022-10-16T20:21:26.249Z,10.43
2022-10-16T20:23:54.363Z,16.52
2022-10-16T20:26:24.077Z,11.57
2022-10-16T20:28:52.000Z,16.10
2022-10-16T20:31:22.548Z,11.68
2022-10-16T20:33:51.669Z,13.65
2022-10-16T20:36:22.082Z,18.88
2022-10-16T20:38:51.598Z,16.38
2022-10-16T20:41:20.154Z,16.33
2022-10-16T20:43:49.637Z,14.90
2022-10-16T20:46:20.182Z,9.05
2022-10-16T20:48:48.529Z,14.73
2022-10-16T20:51:18.094Z,16.20
2022-10-16T20:53:47.105Z,15.23
2022-10-16T20:56:17.544Z,16.20
2022-10-16T20:58:45.900Z,15.63
2022-10-16T21:01:15.892Z,17.40
2022-10-16T21:03:44.967Z,9.98
2022-10-16T21:06:12.780Z,10.10
2022-10-16T21:08:42.666Z,15.63
2022-10-16T21:11:11.934Z,17.30
2022-10-16T21:13:41.291Z,14.90
2022-10-16T21:16:09.954Z,16.25
2022-10-16T21:18:43.361Z,11.52
2022-10-16T21:21:19.427Z,14.52
2022-10-16T21:23:47.291Z,11.32
2022-10-16T21:26:15.067Z,13.38
2022-10-16T21:28:44.250Z,16.10
2022-10-16T21:31:13.705Z,16.42
2022-10-16T21:33:42.428Z,14.00
2022-10-16T21:36:15.188Z,13.57
2022-10-16T21:38:43.022Z,13.00
2022-10-16T21:41:15.674Z,12.32
2022-10-16T21:43:45.012Z,16.88
2022-10-16T21:46:13.362Z,13.60
2022-10-16T21:48:42.679Z,10.50
2022-10-16T21:51:11.173Z,15.07
2022-10-16T21:53:39.422Z,11.77
2022-10-16T21:56:08.030Z,14.68
2022-10-16T21:58:35.865Z,10.75
2022-10-16T22:01:09.330Z,9.30
2022-10-16T22:03:37.201Z,13.80
2022-10-16T22:06:06.930Z,16.13
2022-10-16T22:08:35.110Z,17.92
2022-10-16T22:11:06.820Z,13.38
2022-10-16T22:13:34.806Z,10.52
2022-10-16T22:16:02.758Z,19.05
2022-10-16T22:18:32.494Z,12.32
2022-10-16T22:21:00.980Z,16.40
2022-10-16T22:23:28.881Z,11.70
2022-10-16T22:26:00.294Z,8.18
2022-10-16T22:28:28.105Z,11.48
2022-10-16T22:30:56.029Z,15.57
2022-10-16T22:33:23.863Z,12.80
2022-10-16T22:35:53.013Z,16.58
2022-10-16T22:38:20.849Z,13.63
2022-10-16T22:40:48.695Z,10.90
2022-10-16T22:43:16.459Z,14.88
2022-10-16T22:45:44.290Z,13.55
2022-10-16T22:48:12.114Z,17.23
2022-10-16T22:50:39.942Z,12.48
2022-10-16T22:53:09.048Z,11.55
2022-10-16T22:55:36.817Z,12.35
2022-10-16T22:58:04.622Z,11.68
2022-10-16T23:00:32.600Z,10.27
2022-10-16T23:03:00.457Z,14.35
2022-10-16T23:05:28.399Z,13.90
2022-10-16T23:07:56.386Z,9.57
2022-10-16T23:10:29.666Z,14.40
2022-10-16T23:12:57.493Z,11.63
2022-10-16T23:15:25.294Z,17.77
2022-10-16T23:17:53.089Z,14.48
2022-10-16T23:20:20.863Z,14.60
2022-10-16T23:22:48.624Z,8.98
2022-10-16T23:25:16.675Z,13.13
2022-10-16T23:27:46.010Z,17.52
2022-10-16T23:30:13.866Z,12.27
2022-10-16T23:32:42.189Z,13.60
2022-10-16T23:35:10.282Z,12.23
2022-10-16T23:37:38.056Z,14.63
2022-10-16T23:40:06.610Z,12.10
2022-10-16T23:42:34.454Z,13.82
2022-10-16T23:45:03.544Z,10.30
2022-10-16T23:47:31.389Z,12.48
2022-10-16T23:49:59.452Z,12.65
2022-10-16T23:52:27.201Z,12.48
2022-10-16T23:54:54.914Z,15.82
2022-10-16T23:57:22.733Z,13.48
2022-10-16T23:59:50.493Z,12.25
